Time;durP1;ratioP1;P1;durP2;ratioP2;P2;SDS_P1;SDS_P2;PMS_P1;PMS_P2;Temp;Humidity;BMP_temperature;BMP_pressure;BME280_temperature;BME280_humidity;BME280_pressure;Samples;Min_cycle;Max_cycle;Signal;HPM_P1;HPM_P2
2022/07/09 00:01:53;;;;;;;5.65;2.05;;;;;;;15.76;65.23;101355.47;1773845;80;21074;-82
2022/07/09 00:04:21;;;;;;;3.98;1.65;;;;;;;15.73;65.26;101359.56;1774590;80;20997;-82
2022/07/09 00:06:48;;;;;;;5.28;1.72;;;;;;;15.70;65.29;101350.45;1763357;80;21032;-82
2022/07/09 00:09:15;;;;;;;5.08;1.92;;;;;;;15.65;65.38;101356.83;1763545;80;21013;-82
2022/07/09 00:11:42;;;;;;;4.40;1.82;;;;;;;15.59;65.48;101357.95;1763382;81;21123;-82
2022/07/09 00:14:09;;;;;;;4.37;1.72;;;;;;;15.54;65.53;101352.84;1763343;80;21029;-82
2022/07/09 00:16:36;;;;;;;5.05;1.50;;;;;;;15.46;65.57;101356.74;1763747;81;21037;-82
2022/07/09 00:19:03;;;;;;;4.75;1.75;;;;;;;15.39;65.84;101355.69;1763418;81;21052;-82
2022/07/09 00:21:30;;;;;;;6.05;1.87;;;;;;;15.38;66.03;101350.48;1763417;80;21041;-82
2022/07/09 00:23:57;;;;;;;5.60;1.77;;;;;;;15.39;66.31;101351.72;1763764;80;21166;-82
2022/07/09 00:26:24;;;;;;;5.75;1.75;;;;;;;15.43;66.39;101350.27;1763290;80;21048;-82
2022/07/09 00:28:51;;;;;;;4.75;1.65;;;;;;;15.46;66.58;101347.03;1763477;80;21147;-82
2022/07/09 00:31:18;;;;;;;8.23;1.90;;;;;;;15.50;66.66;101351.28;1763370;80;21036;-82
2022/07/09 00:33:45;;;;;;;4.90;2.05;;;;;;;15.54;66.72;101342.75;1763592;80;21438;-82
2022/07/09 00:36:12;;;;;;;6.47;1.80;;;;;;;15.59;66.90;101340.77;1763335;80;21924;-82
2022/07/09 00:38:41;;;;;;;5.53;2.37;;;;;;;15.64;66.90;101334.83;1763481;80;20960;-82
2022/07/09 00:41:08;;;;;;;6.15;1.90;;;;;;;15.71;66.92;101338.09;1763384;80;21064;-82
2022/07/09 00:43:35;;;;;;;4.12;1.87;;;;;;;15.75;66.93;101331.76;1763684;81;20989;-82
2022/07/09 00:46:02;;;;;;;6.22;1.77;;;;;;;15.81;66.97;101334.13;1763484;81;21044;-82
2022/07/09 00:48:29;;;;;;;6.55;1.92;;;;;;;15.87;66.94;101330.35;1763620;80;21100;-82
2022/07/09 00:50:56;;;;;;;6.03;1.98;;;;;;;15.92;66.86;101327.90;1763230;80;21486;-82
2022/07/09 00:53:25;;;;;;;10.45;2.02;;;;;;;15.94;66.75;101327.38;1763690;80;21588;-82
2022/07/09 00:55:53;;;;;;;8.85;2.25;;;;;;;15.97;66.83;101325.06;1741764;80;21063;-82
2022/07/09 00:58:22;;;;;;;3.98;1.55;;;;;;;15.97;66.66;101320.63;1754441;80;21050;-82
2022/07/09 01:00:49;;;;;;;3.85;1.52;;;;;;;15.99;66.68;101324.06;1748756;81;21944;-82
2022/07/09 01:03:16;;;;;;;3.52;1.77;;;;;;;15.99;66.65;101322.75;1760049;81;21058;-81
2022/07/09 01:05:43;;;;;;;4.58;1.70;;;;;;;15.98;66.63;101320.16;1744086;82;21036;-82
2022/07/09 01:08:10;;;;;;;3.37;1.55;;;;;;;15.97;66.54;101320.63;1723279;80;20977;-82
2022/07/09 01:10:38;;;;;;;5.45;1.92;;;;;;;15.90;66.73;101309.06;1744202;82;21017;-82
2022/07/09 01:13:06;;;;;;;6.17;1.65;;;;;;;15.90;66.73;101309.06;1744078;82;21114;-81
2022/07/09 01:15:34;;;;;;;6.95;1.92;;;;;;;15.88;66.62;101312.23;1743990;82;21033;-82
2022/07/09 01:18:01;;;;;;;4.78;1.77;;;;;;;15.86;66.68;101314.11;1744455;82;21010;-82
2022/07/09 01:20:29;;;;;;;4.37;1.55;;;;;;;15.81;66.61;101308.55;1744071;82;21048;-81
2022/07/09 01:22:58;;;;;;;5.08;1.52;;;;;;;15.78;66.76;101309.16;1744518;82;21489;-82
2022/07/09 01:25:38;;;;;;;4.85;1.60;;;;;;;15.72;66.76;101306.79;1744119;82;21645;-81
2022/07/09 01:28:07;;;;;;;6.15;1.82;;;;;;;15.68;66.88;101299.44;1744055;80;21021;-81
2022/07/09 01:30:37;;;;;;;4.62;1.57;;;;;;;15.62;66.94;101297.03;1741233;81;21025;-80
2022/07/09 01:33:05;;;;;;;3.55;1.67;;;;;;;15.60;67.04;101296.23;1741378;82;20980;-82
2022/07/09 01:35:32;;;;;;;3.47;1.57;;;;;;;15.57;67.20;101297.69;1741154;82;21041;-82
2022/07/09 01:37:59;;;;;;;3.35;1.60;;;;;;;15.55;67.26;101299.56;1741184;82;21087;-81
2022/07/09 01:40:27;;;;;;;6.45;1.65;;;;;;;15.53;67.33;101296.98;1740941;82;21018;-81
2022/07/09 01:42:54;;;;;;;4.35;1.85;;;;;;;15.51;67.41;101287.39;1707241;82;21080;-81
2022/07/09 01:45:21;;;;;;;4.65;1.52;;;;;;;15.49;67.48;101286.59;1711554;82;21540;-82
2022/07/09 01:47:48;;;;;;;4.87;2.10;;;;;;;15.48;67.53;101283.57;1729804;82;21006;-82
2022/07/09 01:50:15;;;;;;;5.45;1.72;;;;;;;15.44;67.64;101281.53;1724679;82;21091;-81
2022/07/09 01:52:42;;;;;;;5.65;1.82;;;;;;;15.45;67.76;101279.74;1737403;81;21042;-82
2022/07/09 01:55:10;;;;;;;3.98;1.90;;;;;;;15.44;67.82;101284.64;1741466;82;21578;-81
2022/07/09 01:57:37;;;;;;;4.12;1.90;;;;;;;15.43;67.85;101275.83;1738808;81;20975;-82
2022/07/09 02:00:05;;;;;;;7.53;2.17;;;;;;;15.42;67.95;101273.27;1734300;80;21056;-82
2022/07/09 02:02:34;;;;;;;6.00;1.80;;;;;;;15.40;67.97;101268.05;1751442;81;21133;-81
2022/07/09 02:05:01;;;;;;;6.47;2.17;;;;;;;15.38;68.04;101265.48;1752648;80;20994;-82
2022/07/09 02:07:29;;;;;;;3.75;1.85;;;;;;;15.36;68.03;101262.52;1752373;81;21009;-82
2022/07/09 02:09:56;;;;;;;4.67;1.42;;;;;;;15.32;68.19;101263.08;1752578;80;21565;-82
2022/07/09 02:12:22;;;;;;;4.92;1.70;;;;;;;15.32;68.22;101263.55;1752218;81;21064;-82
2022/07/09 02:14:49;;;;;;;5.10;1.80;;;;;;;15.30;68.37;101256.18;1748487;80;21341;-82
2022/07/09 02:17:16;;;;;;;5.65;1.92;;;;;;;15.30;68.43;101260.14;1735729;81;20985;-82
2022/07/09 02:19:43;;;;;;;6.55;1.95;;;;;;;15.27;68.37;101257.17;1752283;81;21052;-82
2022/07/09 02:22:11;;;;;;;4.47;1.85;;;;;;;15.25;68.51;101256.37;1752551;80;20973;-82
2022/07/09 02:24:38;;;;;;;6.12;2.00;;;;;;;15.23;68.49;101259.53;1752300;81;21514;-82
2022/07/09 02:27:06;;;;;;;4.05;1.92;;;;;;;15.21;68.56;101261.36;1752609;81;21095;-82
2022/07/09 02:29:33;;;;;;;4.45;1.70;;;;;;;15.18;68.64;101256.22;1752058;81;21057;-82
2022/07/09 02:32:00;;;;;;;3.90;1.90;;;;;;;15.15;68.66;101254.56;1752364;80;21057;-82
2022/07/09 02:34:28;;;;;;;6.30;1.98;;;;;;;15.12;68.81;101253.84;1736818;81;21554;-82
2022/07/09 02:36:55;;;;;;;3.85;1.75;;;;;;;15.13;68.88;101262.16;1747373;80;21464;-82
2022/07/09 02:39:22;;;;;;;5.53;2.00;;;;;;;15.09;68.92;101257.94;1752319;81;21123;-82
2022/07/09 02:41:49;;;;;;;5.05;1.90;;;;;;;15.08;69.05;101258.88;1752200;81;21010;-82
2022/07/09 02:44:15;;;;;;;4.00;1.37;;;;;;;15.07;69.18;101265.05;1752372;80;21112;-82
2022/07/09 02:46:43;;;;;;;5.00;1.92;;;;;;;15.06;69.21;101262.88;1752427;81;21033;-82
2022/07/09 02:49:10;;;;;;;3.70;2.00;;;;;;;15.05;69.26;101262.97;1742951;81;21106;-83
2022/07/09 02:51:37;;;;;;;5.62;1.85;;;;;;;15.03;69.26;101266.12;1719423;83;21129;-82
2022/07/09 02:54:05;;;;;;;3.95;1.82;;;;;;;14.99;69.38;101266.69;1757899;81;21563;-82
2022/07/09 02:56:32;;;;;;;5.40;1.98;;;;;;;14.95;69.59;101262.01;1746992;82;21048;-82
2022/07/09 02:58:59;;;;;;;4.30;1.95;;;;;;;14.97;69.65;101260.64;1747210;82;20941;-82
2022/07/09 03:01:26;;;;;;;5.40;2.20;;;;;;;14.94;69.67;101262.09;1747015;80;21040;-82
2022/07/09 03:03:53;;;;;;;6.45;2.30;;;;;;;14.93;69.77;101259.88;1747451;80;21099;-82
2022/07/09 03:06:22;;;;;;;5.25;2.10;;;;;;;14.92;69.79;101258.64;1746890;82;21579;-82
2022/07/09 03:08:49;;;;;;;4.37;2.25;;;;;;;14.85;69.72;101254.53;1747361;80;20990;-82
2022/07/09 03:11:16;;;;;;;6.22;2.17;;;;;;;14.79;69.93;101256.95;1746977;80;21030;-82
2022/07/09 03:13:43;;;;;;;4.90;2.58;;;;;;;14.77;70.12;101256.19;1747392;82;21338;-82
2022/07/09 03:16:11;;;;;;;5.65;2.52;;;;;;;14.79;70.48;101254.31;1746983;80;21067;-82
2022/07/09 03:18:39;;;;;;;6.40;2.17;;;;;;;14.80;70.38;101252.09;1733648;82;21529;-82
2022/07/09 03:21:08;;;;;;;4.72;2.33;;;;;;;14.79;70.48;101252.14;1739998;80;21049;-82
2022/07/09 03:23:35;;;;;;;6.72;2.20;;;;;;;14.78;70.54;101257.04;1743746;80;21068;-82
2022/07/09 03:26:04;;;;;;;3.17;2.08;;;;;;;14.79;70.67;101255.64;1744363;80;21049;-82
2022/07/09 03:28:33;;;;;;;4.22;2.30;;;;;;;14.78;70.88;101255.72;1747126;80;21561;-82
2022/07/09 03:31:00;;;;;;;3.55;1.95;;;;;;;14.82;70.96;101254.66;1747065;80;21042;-82
2022/07/09 03:33:27;;;;;;;7.50;2.40;;;;;;;14.82;70.92;101255.98;1739436;80;21048;-82
2022/07/09 03:35:55;;;;;;;3.40;1.95;;;;;;;14.82;70.95;101252.88;1734059;82;21490;-82
2022/07/09 03:38:23;;;;;;;3.58;2.20;;;;;;;14.83;71.17;101247.16;1747034;80;21537;-82
2022/07/09 03:40:51;;;;;;;5.53;2.83;;;;;;;14.86;71.15;101243.92;1746937;82;21510;-82
2022/07/09 03:43:18;;;;;;;4.20;2.22;;;;;;;14.87;71.20;101248.27;1746863;80;21550;-82
2022/07/09 03:45:45;;;;;;;4.70;2.27;;;;;;;14.87;71.14;101244.31;1746942;80;21604;-81
2022/07/09 03:48:12;;;;;;;4.40;2.10;;;;;;;14.88;71.05;101246.48;1747053;80;21014;-82
2022/07/09 03:50:39;;;;;;;7.58;3.02;;;;;;;14.85;71.12;101254.53;1726006;80;22094;-82
2022/07/09 03:53:06;;;;;;;3.40;2.08;;;;;;;14.84;71.24;101254.14;1747095;82;21122;-82
2022/07/09 03:55:34;;;;;;;3.17;2.35;;;;;;;14.84;71.43;101256.31;1746888;80;21032;-81
2022/07/09 03:58:01;;;;;;;4.87;2.40;;;;;;;14.84;71.31;101258.95;1746968;82;21464;-81
2022/07/09 04:00:28;;;;;;;5.47;2.42;;;;;;;14.83;71.46;101256.39;1747011;80;21052;-81
2022/07/09 04:02:55;;;;;;;3.50;2.50;;;;;;;14.83;71.48;101257.25;1747024;80;21288;-81
2022/07/09 04:05:22;;;;;;;5.50;2.42;;;;;;;14.83;71.53;101261.20;1746917;82;21117;-81
2022/07/09 04:07:49;;;;;;;6.95;2.33;;;;;;;14.85;71.62;101259.34;1746930;82;21001;-81
2022/07/09 04:10:16;;;;;;;4.35;2.35;;;;;;;14.83;71.70;101258.56;1746980;80;21033;-81
2022/07/09 04:12:43;;;;;;;5.10;2.45;;;;;;;14.84;71.83;101256.78;1747016;80;21551;-81
2022/07/09 04:15:10;;;;;;;5.12;2.17;;;;;;;14.85;71.70;101252.74;1747074;82;21620;-81
2022/07/09 04:17:37;;;;;;;4.95;2.35;;;;;;;14.82;71.69;101252.88;1747020;80;21281;-81
2022/07/09 04:20:06;;;;;;;6.05;2.87;;;;;;;14.81;71.81;101259.55;1746844;82;21041;-81
2022/07/09 04:22:36;;;;;;;6.28;2.45;;;;;;;14.82;72.08;101262.11;1747096;82;21108;-82
2022/07/09 04:25:04;;;;;;;4.00;2.55;;;;;;;14.85;72.24;101263.77;1747087;82;21531;-81
2022/07/09 04:27:31;;;;;;;7.62;2.50;;;;;;;14.87;72.23;101263.25;1747317;82;21456;-82
2022/07/09 04:29:58;;;;;;;5.30;2.42;;;;;;;14.89;72.31;101257.45;1747679;80;21820;-82
2022/07/09 04:32:25;;;;;;;4.40;2.65;;;;;;;14.90;72.42;101260.02;1733089;82;21079;-82
2022/07/09 04:34:52;;;;;;;3.45;2.10;;;;;;;14.94;72.38;101264.26;1763419;80;20999;-82
2022/07/09 04:37:19;;;;;;;6.58;2.77;;;;;;;14.95;72.42;101264.65;1763999;81;21015;-82
2022/07/09 04:39:46;;;;;;;4.67;2.35;;;;;;;14.99;72.53;101267.16;1763682;81;21089;-82
2022/07/09 04:42:13;;;;;;;3.92;2.50;;;;;;;15.01;72.55;101262.21;1763988;81;21077;-82
2022/07/09 04:44:41;;;;;;;4.87;2.42;;;;;;;15.06;72.69;101269.95;1763689;81;21014;-82
2022/07/09 04:47:10;;;;;;;4.72;2.50;;;;;;;15.08;72.57;101264.16;1763946;81;21006;-82
2022/07/09 04:49:37;;;;;;;4.12;2.45;;;;;;;15.09;72.59;101264.54;1751265;81;20995;-82
2022/07/09 04:52:05;;;;;;;5.12;2.67;;;;;;;15.09;72.68;101267.18;1755295;80;21525;-82
2022/07/09 04:54:32;;;;;;;5.70;2.90;;;;;;;15.11;72.67;101269.30;1763431;80;21092;-82
2022/07/09 04:56:59;;;;;;;3.98;2.47;;;;;;;15.09;72.53;101270.67;1763632;81;21032;-82
2022/07/09 04:59:27;;;;;;;5.50;2.77;;;;;;;15.11;72.82;101268.84;1763480;80;21588;-82
2022/07/09 05:01:54;;;;;;;4.17;2.60;;;;;;;15.14;72.80;101275.30;1763850;81;21030;-82
2022/07/09 05:04:21;;;;;;;6.67;2.55;;;;;;;15.16;72.84;101272.61;1763489;81;21119;-82
2022/07/09 05:06:48;;;;;;;4.95;2.58;;;;;;;15.20;72.92;101274.19;1763421;80;21935;-82
2022/07/09 05:09:15;;;;;;;4.87;2.80;;;;;;;15.24;72.86;101274.91;1763347;81;21044;-82
2022/07/09 05:11:42;;;;;;;4.95;2.95;;;;;;;15.27;72.75;101275.66;1763498;80;21514;-82
2022/07/09 05:14:09;;;;;;;6.25;3.10;;;;;;;15.26;72.68;101267.78;1763441;80;21069;-82
2022/07/09 05:16:36;;;;;;;5.65;2.72;;;;;;;15.28;72.76;101273.40;1763694;80;21537;-82
2022/07/09 05:19:03;;;;;;;5.08;2.90;;;;;;;15.30;72.81;101272.03;1763505;80;21943;-81
2022/07/09 05:21:30;;;;;;;5.70;2.90;;;;;;;15.32;72.80;101266.19;1763662;80;21569;-82
2022/07/09 05:23:57;;;;;;;4.33;2.85;;;;;;;15.30;72.58;101272.03;1763560;80;21024;-82
2022/07/09 05:26:24;;;;;;;5.20;2.47;;;;;;;15.29;72.76;101262.36;1763623;80;21024;-82
2022/07/09 05:28:51;;;;;;;4.25;2.60;;;;;;;15.31;72.78;101261.38;1749489;80;21486;-82
2022/07/09 05:31:18;;;;;;;6.45;2.62;;;;;;;15.32;72.79;101257.80;1735450;81;21144;-83
2022/07/09 05:33:45;;;;;;;3.92;2.20;;;;;;;15.36;72.91;101255.91;1748760;81;20990;-82
2022/07/09 05:36:12;;;;;;;6.60;2.90;;;;;;;15.42;72.96;101256.11;1754805;79;21399;-79
2022/07/09 05:38:39;;;;;;;5.92;2.75;;;;;;;15.48;72.93;101254.04;1749667;79;21036;-84
2022/07/09 05:41:07;;;;;;;4.55;2.58;;;;;;;15.53;72.83;101248.09;1740453;81;21399;-81
2022/07/09 05:43:34;;;;;;;4.67;2.40;;;;;;;15.58;72.82;101245.26;1741500;79;21130;-81
2022/07/09 05:46:01;;;;;;;4.45;2.33;;;;;;;15.64;72.79;101243.66;1746384;79;21071;-79
2022/07/09 05:48:28;;;;;;;5.70;2.70;;;;;;;15.68;72.72;101241.29;1748888;79;21059;-83
2022/07/09 05:50:55;;;;;;;7.75;2.80;;;;;;;15.74;72.70;101237.08;1742222;79;21051;-80
2022/07/09 05:53:21;;;;;;;4.47;2.45;;;;;;;15.79;72.63;101239.48;1749438;79;21802;-83
2022/07/09 05:55:49;;;;;;;5.08;2.27;;;;;;;15.84;72.54;101236.17;1744908;79;21096;-79
2022/07/09 05:58:16;;;;;;;5.12;2.75;;;;;;;15.88;72.55;101239.09;1745964;81;21057;-79
2022/07/09 06:00:43;;;;;;;4.83;2.30;;;;;;;15.91;72.29;101231.02;1733356;81;21063;-78
2022/07/09 06:03:10;;;;;;;4.20;2.77;;;;;;;15.91;72.29;101231.02;1736191;79;21051;-79
2022/07/09 06:05:36;;;;;;;4.53;2.42;;;;;;;16.01;72.34;101238.05;1742680;80;21075;-83
2022/07/09 06:08:04;;;;;;;5.72;2.70;;;;;;;16.09;71.89;101237.22;1717376;82;21646;-83
2022/07/09 06:10:31;;;;;;;6.33;3.25;;;;;;;16.09;71.89;101237.22;1733406;81;21052;-81
2022/07/09 06:12:57;;;;;;;4.95;2.50;;;;;;;16.09;71.88;101232.41;1735502;79;21068;-78
2022/07/09 06:15:25;;;;;;;6.03;2.52;;;;;;;16.11;71.80;101239.34;1741353;79;21453;-79
2022/07/09 06:17:52;;;;;;;5.42;2.90;;;;;;;16.18;71.92;101229.31;1737904;79;21047;-77
2022/07/09 06:20:19;;;;;;;8.43;2.80;;;;;;;16.18;71.92;101229.31;1731336;81;21708;-79
2022/07/09 06:22:47;;;;;;;4.62;2.40;;;;;;;16.19;71.54;101233.70;1751919;81;21080;-79
2022/07/09 06:25:14;;;;;;;4.33;2.12;;;;;;;16.20;71.31;101226.14;1736683;81;21064;-76
2022/07/09 06:27:42;;;;;;;6.47;2.83;;;;;;;16.20;71.31;101226.14;1733743;81;21052;-76
2022/07/09 06:30:09;;;;;;;9.18;2.83;;;;;;;16.24;71.59;101227.26;1740797;81;21068;-76
2022/07/09 06:32:36;;;;;;;8.25;2.35;;;;;;;16.34;71.42;101237.39;1728836;82;21911;-77
2022/07/09 06:35:04;;;;;;;5.53;2.25;;;;;;;16.40;71.33;101230.00;1727831;80;21120;-75
2022/07/09 06:37:31;;;;;;;5.62;2.12;;;;;;;16.63;70.82;101228.06;1728513;80;22206;-77
2022/07/09 06:39:59;;;;;;;5.25;2.25;;;;;;;16.63;70.82;101228.06;1737393;80;21119;-76
2022/07/09 06:42:26;;;;;;;4.05;2.02;;;;;;;16.80;71.08;101226.78;1729963;82;21052;-77
2022/07/09 06:44:58;;;;;;;4.90;1.98;;;;;;;16.90;70.54;101231.13;1712271;80;21921;-76
2022/07/09 06:47:25;;;;;;;5.22;1.80;;;;;;;16.90;70.10;101221.42;1732228;82;21050;-77
2022/07/09 06:49:52;;;;;;;5.00;2.10;;;;;;;16.97;70.08;101221.11;1723871;80;21037;-75
2022/07/09 06:52:19;;;;;;;5.22;2.20;;;;;;;17.05;70.21;101209.66;1720541;80;21001;-77
2022/07/09 06:54:46;;;;;;;4.80;2.00;;;;;;;17.13;69.89;101217.59;1720133;82;21072;-79
2022/07/09 06:57:13;;;;;;;4.40;1.65;;;;;;;17.23;69.58;101217.96;1714570;82;21525;-79
2022/07/09 06:59:40;;;;;;;7.10;2.00;;;;;;;17.31;69.11;101212.27;1726822;82;21084;-75
2022/07/09 07:02:07;;;;;;;5.80;2.15;;;;;;;17.39;68.78;101207.43;1725054;82;21064;-80
2022/07/09 07:04:34;;;;;;;8.18;2.02;;;;;;;17.41;68.36;101212.19;1744894;80;21029;-76
2022/07/09 07:07:01;;;;;;;3.87;1.80;;;;;;;17.43;68.12;101214.30;1727608;82;21036;-76
2022/07/09 07:09:29;;;;;;;4.10;2.00;;;;;;;17.47;68.02;101220.28;1716715;80;21095;-76
2022/07/09 07:11:56;;;;;;;5.42;2.00;;;;;;;17.44;67.35;101217.80;1716848;80;21041;-76
2022/07/09 07:14:23;;;;;;;6.25;1.95;;;;;;;17.39;66.99;101225.50;1717387;80;20993;-76
2022/07/09 07:16:50;;;;;;;7.67;2.05;;;;;;;17.33;66.74;101224.98;1717194;80;20977;-76
2022/07/09 07:19:18;;;;;;;5.35;1.98;;;;;;;17.24;66.54;101221.50;1720191;82;21002;-76
2022/07/09 07:21:45;;;;;;;5.70;2.15;;;;;;;17.19;66.53;101216.42;1734911;82;21089;-76
2022/07/09 07:24:13;;;;;;;6.17;1.80;;;;;;;17.20;66.67;101217.27;1717372;80;21519;-76
2022/07/09 07:26:40;;;;;;;3.90;1.80;;;;;;;17.21;66.79;101211.91;1717279;82;21087;-76
2022/07/09 07:29:07;;;;;;;5.60;1.98;;;;;;;17.26;66.73;101213.83;1717570;82;20985;-76
2022/07/09 07:31:34;;;;;;;4.12;1.82;;;;;;;17.29;66.47;101221.64;1717233;81;21045;-76
2022/07/09 07:34:01;;;;;;;4.20;1.50;;;;;;;17.29;66.32;101218.99;1717175;80;21507;-76
2022/07/09 07:36:28;;;;;;;4.78;1.47;;;;;;;17.29;65.97;101212.81;1717446;82;21024;-76
2022/07/09 07:38:55;;;;;;;4.30;1.60;;;;;;;17.25;65.54;101217.90;1717301;82;21060;-76
2022/07/09 07:41:23;;;;;;;7.78;1.80;;;;;;;17.22;65.05;101210.97;1717520;82;21061;-76
2022/07/09 07:43:50;;;;;;;6.60;1.37;;;;;;;17.26;65.14;101207.20;1717188;80;21613;-76
2022/07/09 07:46:17;;;;;;;3.87;1.50;;;;;;;17.37;65.19;101202.20;1717531;80;21108;-76
2022/07/09 07:48:44;;;;;;;4.30;1.60;;;;;;;17.47;65.18;101205.70;1717088;80;21060;-76
2022/07/09 07:51:11;;;;;;;4.70;1.40;;;;;;;17.49;64.81;101204.69;1728042;80;21010;-76
2022/07/09 07:53:38;;;;;;;5.83;1.55;;;;;;;17.45;64.43;101208.42;1747008;80;20945;-76
2022/07/09 07:56:56;;;;;;;5.60;1.50;;;;;;;17.48;64.26;101206.08;1739694;80;21617;-75
2022/07/09 07:59:45;;;;;;;4.00;1.57;;;;;;;17.51;63.99;101201.47;1695889;82;21466;-76
2022/07/09 08:01:53;;;;;;;7.17;1.57;;;;;;;17.58;63.90;101200.69;1696089;80;21025;-76
2022/07/09 08:04:20;;;;;;;7.80;2.00;;;;;;;17.68;63.77;101196.61;1728094;80;21053;-76
2022/07/09 08:06:47;;;;;;;3.65;1.35;;;;;;;17.80;63.69;101188.48;1729922;80;21018;-76
2022/07/09 08:09:14;;;;;;;4.78;1.42;;;;;;;17.89;63.56;101195.93;1746176;82;21049;-76
2022/07/09 08:11:41;;;;;;;9.48;1.62;;;;;;;17.94;63.08;101197.02;1727318;82;21128;-75
2022/07/09 08:14:09;;;;;;;3.40;1.55;;;;;;;17.93;62.54;101204.56;1728062;80;21092;-76
2022/07/09 08:16:36;;;;;;;3.80;1.52;;;;;;;17.92;62.42;101200.21;1745627;80;21066;-76
2022/07/09 08:19:03;;;;;;;5.62;1.80;;;;;;;17.99;62.50;101194.48;1747123;80;21522;-75
2022/07/09 08:21:30;;;;;;;4.37;1.37;;;;;;;18.08;62.37;101194.45;1747035;82;21520;-76
2022/07/09 08:24:00;;;;;;;3.83;1.32;;;;;;;18.10;61.91;101187.27;1747129;80;22126;-76
2022/07/09 08:26:28;;;;;;;3.70;1.27;;;;;;;18.13;61.83;101197.70;1747111;80;21525;-76
2022/07/09 08:28:56;;;;;;;4.93;1.77;;;;;;;18.16;61.81;101201.98;1747410;80;22237;-76
2022/07/09 08:31:24;;;;;;;6.55;1.87;;;;;;;18.18;61.69;101194.33;1719959;81;21024;-76
2022/07/09 08:33:51;;;;;;;3.20;1.47;;;;;;;18.25;61.50;101193.50;1743274;80;21030;-76
2022/07/09 08:36:19;;;;;;;6.62;1.70;;;;;;;18.32;61.33;101186.91;1742835;80;21077;-76
2022/07/09 08:38:47;;;;;;;5.50;1.37;;;;;;;18.42;61.33;101193.86;1742898;80;21085;-76
2022/07/09 08:41:16;;;;;;;3.72;1.60;;;;;;;18.55;61.13;101184.25;1742932;82;21522;-76
2022/07/09 08:43:43;;;;;;;4.65;1.47;;;;;;;18.61;60.92;101189.20;1743088;80;22289;-76
2022/07/09 08:46:11;;;;;;;4.90;1.72;;;;;;;18.69;60.74;101180.80;1742856;82;21045;-76
2022/07/09 08:48:38;;;;;;;5.12;1.85;;;;;;;18.75;60.74;101181.79;1739846;80;21103;-76
2022/07/09 08:51:06;;;;;;;5.30;2.10;;;;;;;18.77;60.17;101175.92;1725732;80;21502;-76
2022/07/09 08:53:34;;;;;;;4.80;1.70;;;;;;;18.83;60.09;101171.57;1743162;80;21010;-76
2022/07/09 08:56:01;;;;;;;6.28;1.90;;;;;;;18.88;59.88;101171.31;1742972;82;20994;-76
2022/07/09 08:58:30;;;;;;;5.75;1.50;;;;;;;18.96;59.86;101161.08;1743316;80;21037;-76
2022/07/09 09:00:58;;;;;;;4.37;1.80;;;;;;;19.04;59.70;101154.83;1734928;82;21119;-76
2022/07/09 09:03:25;;;;;;;2.40;1.30;;;;;;;19.09;59.66;101167.81;1730986;82;20906;-76
2022/07/09 09:06:05;;;;;;;4.53;1.47;;;;;;;19.24;59.54;101170.04;1721929;80;20999;-76
2022/07/09 09:08:37;;;;;;;;;;;;;;;19.30;59.11;101161.69;1772698;80;21491;-80
2022/07/09 09:11:08;;;;;;;3.37;1.40;;;;;;;19.36;58.57;101162.14;1747324;80;20502;-76
2022/07/09 09:13:47;;;;;;;4.08;1.50;;;;;;;19.42;58.69;101162.72;1743144;82;20990;-76
2022/07/09 09:16:16;;;;;;;4.15;1.25;;;;;;;19.46;58.55;101157.12;1742804;80;20910;-76
2022/07/09 09:18:48;;;;;;;3.77;1.40;;;;;;;19.47;58.19;101153.98;1743089;82;21058;-76
2022/07/09 09:21:18;;;;;;;7.15;2.00;;;;;;;19.49;58.02;101148.95;1737642;82;21713;-76
2022/07/09 09:23:48;;;;;;;4.67;1.60;;;;;;;19.51;57.70;101148.84;1728927;82;21100;-76
2022/07/09 09:26:22;;;;;;;4.47;1.80;;;;;;;19.50;57.84;101141.35;1722064;80;21943;-76
2022/07/09 09:29:01;;;;;;;5.30;1.67;;;;;;;19.47;57.52;101155.32;1742390;82;21070;-76
2022/07/09 09:31:35;;;;;;;5.05;1.70;;;;;;;19.43;57.50;101141.38;1741219;80;21006;-76
2022/07/09 09:34:10;;;;;;;4.85;1.70;;;;;;;19.47;57.70;101144.20;1746887;82;21044;-76
2022/07/09 09:36:43;;;;;;;3.52;1.60;;;;;;;19.58;57.94;101145.72;1747052;82;21057;-76
2022/07/09 09:39:24;;;;;;;6.67;2.47;;;;;;;19.61;57.21;101155.30;1730256;82;21335;-75
2022/07/09 09:42:04;;;;;;;3.87;1.45;;;;;;;19.48;57.18;101149.92;1745680;80;21097;-76
2022/07/09 09:44:39;;;;;;;4.30;1.67;;;;;;;19.47;57.26;101152.66;1746796;82;21562;-76
2022/07/09 09:47:10;;;;;;;4.20;2.08;;;;;;;19.56;57.48;101151.59;1726906;82;21025;-76
2022/07/09 09:49:38;;;;;;;3.40;1.75;;;;;;;19.64;57.33;101152.45;1746908;82;21033;-76
2022/07/09 09:52:10;;;;;;;4.75;2.08;;;;;;;19.70;57.21;101158.73;1726035;82;21112;-76
2022/07/09 09:54:42;;;;;;;5.90;1.87;;;;;;;19.67;56.85;101151.44;1746775;82;21009;-76
2022/07/09 09:57:13;;;;;;;3.58;1.80;;;;;;;19.60;56.51;101154.45;1747064;82;21003;-76
2022/07/09 09:59:42;;;;;;;3.33;1.60;;;;;;;19.64;56.59;101151.13;1746849;82;21061;-76
2022/07/09 10:02:10;;;;;;;5.72;2.10;;;;;;;19.59;56.42;101154.09;1736921;82;25761;-76
2022/07/09 10:04:40;;;;;;;5.60;1.92;;;;;;;19.64;56.40;101146.28;1736611;80;21124;-76
2022/07/09 10:07:10;;;;;;;6.85;2.40;;;;;;;19.69;56.44;101157.04;1737184;82;21566;-76
2022/07/09 10:09:37;;;;;;;;;;;;;;;19.85;56.54;101153.42;1728463;82;21041;-76
2022/07/09 10:12:08;;;;;;;3.80;2.05;;;;;;;19.95;56.14;101143.42;1747125;82;20191;-76
2022/07/09 10:14:38;;;;;;;3.62;1.90;;;;;;;20.10;56.48;101144.23;1725793;82;20998;-76
2022/07/09 10:17:14;;;;;;;5.17;1.75;;;;;;;20.23;55.92;101148.25;1746981;82;21144;-76
2022/07/09 10:19:58;;;;;;;5.10;2.30;;;;;;;20.35;56.02;101143.95;1746744;82;20997;-78
2022/07/09 10:22:40;;;;;;;5.50;2.02;;;;;;;20.47;55.68;101135.13;1746957;82;21045;-78
2022/07/09 10:25:12;;;;;;;3.40;1.98;;;;;;;20.54;55.50;101131.63;1746722;82;21037;-76
2022/07/09 10:27:46;;;;;;;3.67;2.08;;;;;;;20.63;55.17;101121.67;1732201;82;20982;-77
2022/07/09 10:30:32;;;;;;;5.85;2.70;;;;;;;20.81;54.95;101116.44;1746679;82;21581;-81
2022/07/09 10:33:10;;;;;;;5.67;2.85;;;;;;;20.90;54.52;101132.27;1760259;80;22140;-76
2022/07/09 10:35:47;;;;;;;3.87;3.17;;;;;;;20.76;54.10;101119.02;1734618;81;21381;-78
2022/07/09 10:38:16;;;;;;;6.45;3.00;;;;;;;20.66;54.03;101135.63;1707067;81;21097;-77
2022/07/09 10:40:47;;;;;;;5.30;3.02;;;;;;;20.51;53.95;101133.98;1732972;81;21000;-77
2022/07/09 10:43:15;;;;;;;4.00;2.40;;;;;;;20.56;54.62;101131.87;1732910;82;21121;-77
2022/07/09 10:45:46;;;;;;;8.00;2.75;;;;;;;20.65;54.18;101132.61;1714309;82;21056;-77
2022/07/09 10:48:15;;;;;;;6.55;2.98;;;;;;;20.84;54.44;101127.34;1716128;82;21494;-78
2022/07/09 10:50:48;;;;;;;4.78;2.52;;;;;;;20.82;53.99;101137.27;1707336;81;21488;-77
2022/07/09 10:53:15;;;;;;;6.33;2.47;;;;;;;20.75;53.64;101142.63;1733176;81;20990;-84
2022/07/09 10:55:49;;;;;;;3.90;2.80;;;;;;;20.85;53.75;101137.91;1737096;81;21166;-85
2022/07/09 10:58:20;;;;;;;5.67;2.70;;;;;;;21.00;53.69;101138.65;1710788;81;21015;-79
2022/07/09 11:00:59;;;;;;;7.05;2.67;;;;;;;21.09;53.74;101138.48;1741760;81;21045;-80
2022/07/09 11:03:28;;;;;;;4.83;2.12;;;;;;;21.16;53.17;101142.45;1716633;82;21057;-79
2022/07/09 11:05:55;;;;;;;5.70;1.97;;;;;;;21.31;53.04;101145.84;1720069;82;21478;-81
2022/07/09 11:08:23;;;;;;;5.17;2.35;;;;;;;21.31;53.04;101145.84;1729870;82;21163;-80
2022/07/09 11:10:50;;;;;;;3.50;1.62;;;;;;;21.34;52.72;101141.66;1738090;82;21049;-78
2022/07/09 11:13:17;;;;;;;6.58;2.87;;;;;;;21.27;52.42;101139.03;1744023;82;21052;-77
2022/07/09 11:15:44;;;;;;;3.92;2.35;;;;;;;21.15;52.01;101133.60;1743934;82;21060;-80
2022/07/09 11:18:15;;;;;;;4.80;2.52;;;;;;;21.04;52.05;101134.83;1744440;82;21017;-80
2022/07/09 11:20:47;;;;;;;3.75;2.02;;;;;;;20.98;51.96;101141.05;1743994;82;21139;-81
2022/07/09 11:23:16;;;;;;;13.03;2.30;;;;;;;20.85;52.09;101147.23;1723428;82;21053;-79
2022/07/09 11:25:46;;;;;;;2.65;1.70;;;;;;;20.85;52.10;101135.23;1744109;82;21554;-80
2022/07/09 11:28:20;;;;;;;;;;;;;;;20.95;52.11;101136.81;1746814;82;21002;-83
2022/07/09 11:31:00;;;;;;;3.87;1.90;;;;;;;21.09;52.15;101127.38;1763379;80;20467;-78
2022/07/09 11:34:10;;;;;;;2.75;1.60;;;;;;;21.30;52.32;101136.14;1763249;80;21083;-80